createdAt,value
2016-02-16T00:00:30.074Z,84.45
2016-02-16T00:01:29.967Z,84.26
2016-02-16T00:02:29.939Z,84.45
2016-02-16T00:03:29.942Z,84.26
2016-02-16T00:04:29.070Z,84.55
2016-02-16T00:05:29.822Z,84.55
2016-02-16T00:06:29.700Z,84.55
2016-02-16T00:07:29.655Z,84.36
2016-02-16T00:08:29.611Z,83.97
2016-02-16T00:09:29.505Z,84.17
2016-02-16T00:10:29.492Z,83.88
2016-02-16T00:11:29.385Z,84.26
2016-02-16T00:12:29.326Z,83.88
2016-02-16T00:13:29.296Z,83.78
2016-02-16T00:14:29.221Z,84.36
2016-02-16T00:15:29.209Z,84.17
2016-02-16T00:16:29.118Z,84.26
2016-02-16T00:17:29.151Z,83.88
2016-02-16T00:18:29.092Z,83.69
2016-02-16T00:19:28.953Z,84.07
2016-02-16T00:20:28.879Z,84.64
2016-02-16T00:21:28.959Z,84.64
2016-02-16T00:22:28.774Z,84.45
2016-02-16T00:23:28.731Z,84.45
2016-02-16T00:24:28.733Z,84.83
2016-02-16T00:25:28.751Z,85.02
2016-02-16T00:26:28.551Z,84.92
2016-02-16T00:27:28.600Z,84.45
2016-02-16T00:28:28.509Z,84.17
2016-02-16T00:29:28.450Z,84.26
2016-02-16T00:30:28.327Z,84.92
2016-02-16T00:31:28.330Z,84.83
2016-02-16T00:32:28.207Z,85.11
2016-02-16T00:33:28.226Z,85.21
2016-02-16T00:34:28.181Z,84.83
2016-02-16T00:35:28.075Z,84.83
2016-02-16T00:36:28.061Z,84.92
2016-02-16T00:37:27.924Z,84.64
2016-02-16T00:38:27.880Z,85.02
2016-02-16T00:39:27.805Z,85.3
2016-02-16T00:40:27.854Z,85.4
2016-02-16T00:41:27.700Z,85.4
2016-02-16T00:42:27.625Z,85.59
2016-02-16T00:43:27.581Z,85.49
2016-02-16T00:44:27.646Z,85.49
2016-02-16T00:45:27.477Z,86.25
2016-02-16T00:46:27.417Z,85.74
2016-02-16T00:47:27.357Z,85.49
2016-02-16T00:48:27.391Z,85.4
2016-02-16T00:49:27.331Z,85.11
2016-02-16T00:50:27.209Z,85.21
2016-02-16T00:51:27.243Z,85.21
2016-02-16T00:52:27.151Z,84.92
2016-02-16T00:53:27.029Z,85.11
2016-02-16T00:54:26.970Z,84.74
2016-02-16T00:55:26.909Z,84.74
2016-02-16T00:56:26.820Z,84.74
2016-02-16T00:57:26.790Z,84.45
2016-02-16T00:58:26.792Z,84.45
2016-02-16T00:59:26.670Z,84.55
2016-02-16T01:00:26.705Z,84.45
2016-02-16T01:01:26.645Z,84.55
2016-02-16T01:02:26.523Z,84.07
2016-02-16T01:03:26.447Z,84.55
2016-02-16T01:04:26.372Z,84.45
2016-02-16T01:05:26.343Z,84.55
2016-02-16T01:06:26.330Z,84.36
2016-02-16T01:07:26.380Z,84.55
2016-02-16T01:08:26.180Z,84.26
2016-02-16T01:09:26.197Z,84.45
2016-02-16T01:10:26.043Z,84.36
2016-02-16T01:11:26.015Z,83.78
2016-02-16T01:12:26.002Z,84.45
2016-02-16T01:13:25.958Z,84.26
2016-02-16T01:14:25.821Z,83.78
2016-02-16T01:15:25.760Z,84.45
2016-02-16T01:16:25.716Z,84.26
2016-02-16T01:17:25.671Z,84.17
2016-02-16T01:18:25.596Z,84.45
2016-02-16T01:19:25.553Z,84.36
2016-02-16T01:20:25.477Z,84.45
2016-02-16T01:21:25.417Z,84.07
2016-02-16T01:22:25.389Z,84.45
2016-02-16T01:23:25.281Z,84.36
2016-02-16T01:24:25.254Z,84.26
2016-02-16T01:25:25.226Z,84.07
2016-02-16T01:26:25.134Z,83.69
2016-02-16T01:27:25.074Z,84.17
2016-02-16T01:28:25.012Z,84.26
2016-02-16T01:29:24.951Z,84.55
2016-02-16T01:30:24.908Z,83.69
2016-02-16T01:31:24.832Z,84.26
2016-02-16T01:32:24.867Z,84.45
2016-02-16T01:33:24.806Z,84.74
2016-02-16T01:34:24.715Z,84.88
2016-02-16T01:35:24.624Z,84.59
2016-02-16T01:36:24.580Z,84.45
2016-02-16T01:37:24.488Z,84.17
2016-02-16T01:38:24.430Z,84.45
2016-02-16T01:39:24.400Z,85.11
2016-02-16T01:40:23.575Z,84.55
2016-02-16T01:41:24.249Z,84.88
2016-02-16T01:42:24.315Z,84.92
2016-02-16T01:43:24.146Z,84.83
2016-02-16T01:44:24.102Z,85.45
2016-02-16T01:45:24.058Z,85.17
2016-02-16T01:46:23.982Z,85.07
2016-02-16T01:47:23.921Z,84.31
2016-02-16T01:48:23.847Z,84.41
2016-02-16T01:49:23.802Z,84.45
2016-02-16T01:50:23.758Z,84.45
2016-02-16T01:51:23.699Z,85.07
2016-02-16T01:52:23.607Z,84.98
2016-02-16T01:53:23.563Z,84.5
2016-02-16T01:54:23.504Z,85.36
2016-02-16T01:55:23.459Z,85.26
2016-02-16T01:56:23.431Z,85.74
2016-02-16T01:57:23.402Z,85.07
2016-02-16T01:58:23.358Z,85.55
2016-02-16T01:59:23.282Z,85.55
2016-02-16T02:00:23.175Z,85.64
2016-02-16T02:01:23.147Z,85.83
2016-02-16T02:02:23.040Z,85.45
2016-02-16T02:03:23.028Z,85.74
2016-02-16T02:04:22.952Z,85.74
2016-02-16T02:05:22.878Z,85.64
2016-02-16T02:06:22.865Z,85.36
2016-02-16T02:07:22.759Z,85.55
2016-02-16T02:08:22.807Z,85.55
2016-02-16T02:09:22.779Z,85.74
2016-02-16T02:10:22.625Z,85.55
2016-02-16T02:11:22.520Z,85.64
2016-02-16T02:12:22.506Z,85.83
2016-02-16T02:13:22.415Z,85.36
2016-02-16T02:14:22.402Z,85.45
2016-02-16T02:15:22.311Z,85.55
2016-02-16T02:16:22.283Z,85.45
2016-02-16T02:17:22.191Z,85.74
2016-02-16T02:18:22.178Z,85.74
2016-02-16T02:19:22.103Z,85.55
2016-02-16T02:20:22.043Z,85.17
2016-02-16T02:21:21.983Z,85.17
2016-02-16T02:22:21.908Z,85.07
2016-02-16T02:23:21.879Z,85.07
2016-02-16T02:24:21.867Z,85.36
2016-02-16T02:25:21.744Z,85.17
2016-02-16T02:26:21.699Z,85.45
2016-02-16T02:27:21.608Z,85.64
2016-02-16T02:28:21.627Z,85.36
2016-02-16T02:29:21.536Z,85.55
2016-02-16T02:30:21.461Z,85.36
2016-02-16T02:31:21.401Z,85.36
2016-02-16T02:32:21.340Z,85.74
2016-02-16T02:33:21.281Z,86.21
2016-02-16T02:34:21.253Z,86.11
2016-02-16T02:35:21.255Z,86.59
2016-02-16T02:36:21.149Z,86.02
2016-02-16T02:37:21.073Z,85.74
2016-02-16T02:38:20.998Z,85.36
2016-02-16T02:39:20.937Z,85.64
2016-02-16T02:40:20.973Z,85.93
2016-02-16T02:41:20.803Z,86.21
2016-02-16T02:42:20.743Z,86.21
2016-02-16T02:43:20.698Z,86.21
2016-02-16T02:44:20.701Z,85.64
2016-02-16T02:45:20.578Z,85.64
2016-02-16T02:46:20.644Z,85.83
2016-02-16T02:47:20.570Z,85.64
2016-02-16T02:48:20.509Z,85.26
2016-02-16T02:49:20.496Z,85.45
2016-02-16T02:50:20.295Z,85.74
2016-02-16T02:51:20.266Z,86.02
2016-02-16T02:52:20.176Z,85.64
2016-02-16T02:53:20.133Z,85.74
2016-02-16T02:54:20.056Z,85.74
2016-02-16T02:55:20.027Z,85.74
2016-02-16T02:56:19.968Z,85.74
2016-02-16T02:57:19.908Z,85.36
2016-02-16T02:58:19.896Z,85.45
2016-02-16T02:59:19.883Z,85.26
2016-02-16T03:00:19.760Z,85.26
2016-02-16T03:01:19.685Z,85.07
2016-02-16T03:02:19.656Z,84.88
2016-02-16T03:03:19.596Z,84.98
2016-02-16T03:04:19.510Z,85.26
2016-02-16T03:05:19.452Z,85.17
2016-02-16T03:06:19.391Z,84.78
2016-02-16T03:07:19.332Z,84.88
2016-02-16T03:08:19.287Z,85.74
2016-02-16T03:09:19.228Z,85.74
2016-02-16T03:10:19.168Z,85.74
2016-02-16T03:11:19.030Z,85.55
2016-02-16T03:12:19.079Z,85.55
2016-02-16T03:13:19.020Z,85.64
2016-02-16T03:14:19.069Z,85.55
2016-02-16T03:15:18.932Z,85.36
2016-02-16T03:16:18.824Z,85.55
2016-02-16T03:17:18.906Z,85.36
2016-02-16T03:18:18.720Z,85.64
2016-02-16T03:19:18.645Z,85.07
2016-02-16T03:20:18.664Z,85.26
2016-02-16T03:21:18.542Z,85.74
2016-02-16T03:22:18.466Z,85.45
2016-02-16T03:23:18.422Z,85.45
2016-02-16T03:24:18.377Z,85.45
2016-02-16T03:25:18.302Z,85.55
2016-02-16T03:26:18.242Z,85.55
2016-02-16T03:27:18.214Z,85.93
2016-02-16T03:28:18.154Z,85.55
2016-02-16T03:29:18.094Z,85.36
2016-02-16T03:30:18.018Z,85.55
2016-02-16T03:31:17.974Z,85.55
2016-02-16T03:32:17.977Z,85.07
2016-02-16T03:33:17.855Z,85.45
2016-02-16T03:34:17.873Z,85.55
2016-02-16T03:35:17.735Z,85.55
2016-02-16T03:36:17.707Z,85.55
2016-02-16T03:37:17.709Z,85.55
2016-02-16T03:38:17.588Z,84.59
2016-02-16T03:39:17.511Z,84.88
2016-02-16T03:40:17.452Z,84.31
2016-02-16T03:41:17.423Z,84.5
2016-02-16T03:42:17.348Z,84.41
2016-02-16T03:43:17.271Z,84.31
2016-02-16T03:44:17.228Z,84.31
2016-02-16T03:45:17.309Z,84.59
2016-02-16T03:46:17.093Z,85.26
2016-02-16T03:47:17.064Z,84.88
2016-02-16T03:48:17.035Z,84.5
2016-02-16T03:49:16.928Z,84.5
2016-02-16T03:50:16.885Z,84.88
2016-02-16T03:51:16.841Z,84.59
2016-02-16T03:52:16.781Z,84.41
2016-02-16T03:53:16.705Z,84.41
2016-02-16T03:54:16.708Z,84.03
2016-02-16T03:55:16.633Z,84.03
2016-02-16T03:56:16.557Z,84.03
2016-02-16T03:57:16.482Z,84.22
2016-02-16T03:58:16.422Z,84.31
2016-02-16T03:59:16.408Z,83.84
2016-02-16T04:00:16.427Z,84.03
2016-02-16T04:01:16.274Z,83.55
2016-02-16T04:02:16.214Z,83.55
2016-02-16T04:03:16.123Z,83.65
2016-02-16T04:04:16.110Z,83.74
2016-02-16T04:05:16.019Z,83.36
2016-02-16T04:06:15.958Z,83.65
2016-02-16T04:07:15.915Z,83.84
2016-02-16T04:08:15.855Z,83.36
2016-02-16T04:09:15.779Z,83.27
2016-02-16T04:10:15.719Z,82.89
2016-02-16T04:11:15.660Z,83.27
2016-02-16T04:12:15.725Z,82.89
2016-02-16T04:13:15.588Z,82.89
2016-02-16T04:14:15.527Z,83.17
2016-02-16T04:15:15.436Z,82.79
2016-02-16T04:16:15.377Z,82.6
2016-02-16T04:17:15.317Z,82.51
2016-02-16T04:18:15.257Z,82.6
2016-02-16T04:19:15.182Z,82.51
2016-02-16T04:20:15.168Z,82.89
2016-02-16T04:21:15.109Z,82.42
2016-02-16T04:22:15.112Z,82.13
2016-02-16T04:23:14.974Z,82.13
2016-02-16T04:24:14.929Z,82.6
2016-02-16T04:25:14.853Z,82.79
2016-02-16T04:26:14.795Z,82.42
2016-02-16T04:27:14.750Z,82.89
2016-02-16T04:28:14.690Z,82.32
2016-02-16T04:29:14.631Z,82.04
2016-02-16T04:30:14.586Z,82.04
2016-02-16T04:31:14.508Z,82.13
2016-02-16T04:32:14.452Z,82.42
2016-02-16T04:33:14.394Z,82.23
2016-02-16T04:34:14.274Z,82.23
2016-02-16T04:35:14.232Z,81.75
2016-02-16T04:36:14.192Z,82.13
2016-02-16T04:37:14.096Z,82.42
2016-02-16T04:38:14.048Z,82.7
2016-02-16T04:39:13.982Z,82.23
2016-02-16T04:40:13.902Z,82.23
2016-02-16T04:41:13.838Z,82.51
2016-02-16T04:42:13.793Z,82.04
2016-02-16T04:43:13.762Z,82.23
2016-02-16T04:44:13.670Z,82.13
2016-02-16T04:45:13.623Z,82.42
2016-02-16T04:46:13.548Z,82.42
2016-02-16T04:47:13.564Z,82.23
2016-02-16T04:48:13.457Z,82.32
2016-02-16T04:49:13.365Z,82.32
2016-02-16T04:50:13.320Z,82.04
2016-02-16T04:51:13.275Z,81.85
2016-02-16T04:52:13.200Z,82.32
2016-02-16T04:53:13.156Z,82.13
2016-02-16T04:54:13.065Z,82.13
2016-02-16T04:55:13.035Z,82.23
2016-02-16T04:56:12.991Z,82.13
2016-02-16T04:57:12.932Z,82.23
2016-02-16T04:58:12.840Z,82.32
2016-02-16T04:59:12.781Z,82.23
2016-02-16T05:00:12.737Z,82.23
2016-02-16T05:01:12.677Z,81.94
2016-02-16T05:02:12.601Z,81.66
2016-02-16T05:03:12.557Z,82.04
2016-02-16T05:04:12.498Z,82.32
2016-02-16T05:05:12.454Z,82.04
2016-02-16T05:06:12.379Z,81.85
2016-02-16T05:07:12.350Z,82.32
2016-02-16T05:08:12.289Z,82.23
2016-02-16T05:09:12.262Z,81.66
2016-02-16T05:10:12.170Z,82.13
2016-02-16T05:11:12.111Z,82.13
2016-02-16T05:12:12.066Z,82.42
2016-02-16T05:13:11.991Z,82.23
2016-02-16T05:14:11.962Z,82.13
2016-02-16T05:15:11.887Z,82.23
2016-02-16T05:16:11.889Z,82.23
2016-02-16T05:17:11.783Z,82.13
2016-02-16T05:18:11.739Z,82.23
2016-02-16T05:19:11.850Z,81.75
2016-02-16T05:20:11.572Z,81.56
2016-02-16T05:21:11.512Z,81.37
2016-02-16T05:22:11.468Z,81.37
2016-02-16T05:23:11.439Z,81.27
2016-02-16T05:24:11.364Z,81.09
2016-02-16T05:25:11.367Z,81.27
2016-02-16T05:26:11.244Z,81.09
2016-02-16T05:27:11.185Z,81.09
2016-02-16T05:28:11.172Z,80.9
2016-02-16T05:29:11.159Z,80.71
2016-02-16T05:30:11.037Z,81.56
2016-02-16T05:31:11.008Z,81.75
2016-02-16T05:32:10.902Z,81.66
2016-02-16T05:33:10.841Z,80.99
2016-02-16T05:34:10.781Z,80.99
2016-02-16T05:35:10.737Z,80.62
2016-02-16T05:36:10.678Z,80.99
2016-02-16T05:37:10.634Z,81.09
2016-02-16T05:38:10.543Z,81.18
2016-02-16T05:39:10.498Z,81.37
2016-02-16T05:40:10.406Z,80.8
2016-02-16T05:41:10.488Z,80.71
2016-02-16T05:42:10.303Z,81.18
2016-02-16T05:43:10.305Z,81.47
2016-02-16T05:44:10.214Z,81.18
2016-02-16T05:45:10.123Z,81.09
2016-02-16T05:46:10.111Z,81.37
2016-02-16T05:47:10.145Z,81.56
2016-02-16T05:48:10.164Z,81.56
2016-02-16T05:49:10.306Z,81.37
2016-02-16T05:50:09.871Z,80.8
2016-02-16T05:51:09.889Z,81.09
2016-02-16T05:52:09.861Z,80.99
2016-02-16T05:53:09.770Z,80.62
2016-02-16T05:54:09.647Z,81.37
2016-02-16T05:55:09.697Z,80.99
2016-02-16T05:56:09.544Z,81.09
2016-02-16T05:57:09.484Z,80.99
2016-02-16T05:58:10.066Z,81.56
2016-02-16T05:59:09.599Z,80.8
2016-02-16T06:00:09.585Z,81.18
2016-02-16T06:01:09.277Z,81.56
2016-02-16T06:02:09.466Z,81.56
2016-02-16T06:03:09.172Z,81.56
2016-02-16T06:04:09.065Z,81.27
2016-02-16T06:05:09.038Z,81.56
2016-02-16T06:06:09.166Z,81.18
2016-02-16T06:07:09.215Z,81.18
2016-02-16T06:08:08.858Z,81.27
2016-02-16T06:09:09.299Z,81.05
2016-02-16T06:10:08.801Z,80.86
2016-02-16T06:11:09.179Z,80.95
2016-02-16T06:12:11.572Z,80.67
2016-02-16T06:13:08.684Z,81.27
2016-02-16T06:14:08.499Z,80.99
2016-02-16T06:15:08.471Z,80.99
2016-02-16T06:16:08.365Z,80.9
2016-02-16T06:17:08.210Z,80.99
2016-02-16T06:18:08.541Z,80.57
2016-02-16T06:19:08.263Z,80.62
2016-02-16T06:20:08.328Z,81.14
2016-02-16T06:21:08.096Z,80.57
2016-02-16T06:22:08.005Z,80.57
2016-02-16T06:23:08.055Z,81.09
2016-02-16T06:24:07.932Z,80.86
2016-02-16T06:25:07.873Z,80.71
2016-02-16T06:26:07.797Z,80.52
2016-02-16T06:27:07.722Z,80.43
2016-02-16T06:28:07.740Z,81.05
2016-02-16T06:29:07.586Z,80.33
2016-02-16T06:30:07.558Z,80.48
2016-02-16T06:31:07.561Z,80.76
2016-02-16T06:32:07.500Z,80.57
2016-02-16T06:33:07.442Z,80.57
2016-02-16T06:34:07.381Z,81.09
2016-02-16T06:35:07.228Z,81.09
2016-02-16T06:36:07.200Z,81.05
2016-02-16T06:37:07.172Z,80.86
2016-02-16T06:38:07.204Z,80.99
2016-02-16T06:39:07.036Z,80.71
2016-02-16T06:40:06.975Z,80.62
2016-02-16T06:41:06.947Z,80.9
2016-02-16T06:42:06.902Z,80.57
2016-02-16T06:43:06.827Z,80.95
2016-02-16T06:44:06.752Z,81.05
2016-02-16T06:45:06.707Z,80.48
2016-02-16T06:46:06.632Z,80.57
2016-02-16T06:47:06.573Z,80.48
2016-02-16T06:48:06.512Z,80.57
2016-02-16T06:49:06.485Z,81.05
2016-02-16T06:50:06.409Z,80.67
2016-02-16T06:51:06.334Z,80.86
2016-02-16T06:52:06.367Z,81.05
2016-02-16T06:53:06.229Z,80.57
2016-02-16T06:54:06.170Z,80.95
2016-02-16T06:55:06.126Z,80.57
2016-02-16T06:56:06.129Z,80.67
2016-02-16T06:57:06.006Z,81.05
2016-02-16T06:58:06.009Z,81.05
2016-02-16T06:59:05.948Z,80.76
2016-02-16T07:00:05.873Z,81.05
2016-02-16T07:01:05.845Z,81.05
2016-02-16T07:02:05.722Z,80.95
2016-02-16T07:03:05.631Z,81.05
2016-02-16T07:04:05.634Z,81.05
2016-02-16T07:05:05.574Z,80.76
2016-02-16T07:06:05.655Z,80.67
2016-02-16T07:07:05.423Z,80.76
2016-02-16T07:08:05.394Z,81.05
2016-02-16T07:09:05.632Z,81.43
2016-02-16T07:10:05.369Z,81.05
2016-02-16T07:11:05.184Z,81.14
2016-02-16T07:12:05.202Z,81.33
2016-02-16T07:13:05.205Z,80.86
2016-02-16T07:14:04.989Z,80.67
2016-02-16T07:15:05.366Z,81.52
2016-02-16T07:16:04.932Z,81.05
2016-02-16T07:17:04.888Z,81.52
2016-02-16T07:18:04.827Z,81.52
2016-02-16T07:19:04.909Z,81.43
2016-02-16T07:20:04.693Z,81.14
2016-02-16T07:21:04.632Z,81.52
2016-02-16T07:22:04.542Z,81.33
2016-02-16T07:23:04.481Z,80.86
2016-02-16T07:24:04.516Z,81.05
2016-02-16T07:25:04.565Z,80.76
2016-02-16T07:26:04.459Z,81.05
2016-02-16T07:27:04.259Z,81.62
2016-02-16T07:28:04.293Z,81.81
2016-02-16T07:29:04.170Z,81.52
2016-02-16T07:30:04.157Z,81.71
2016-02-16T07:31:04.035Z,81.47
2016-02-16T07:32:03.990Z,81.33
2016-02-16T07:33:03.947Z,81.33
2016-02-16T07:34:03.980Z,81.24
2016-02-16T07:35:03.780Z,81.62
2016-02-16T07:36:03.720Z,81.81
2016-02-16T07:37:03.707Z,81.43
2016-02-16T07:38:03.631Z,81.71
2016-02-16T07:39:03.619Z,81.33
2016-02-16T07:40:03.481Z,81.05
2016-02-16T07:41:03.421Z,81.05
2016-02-16T07:42:03.392Z,81.43
2016-02-16T07:43:03.316Z,81.33
2016-02-16T07:44:03.289Z,81.81
2016-02-16T07:45:03.322Z,81.18
2016-02-16T07:46:03.185Z,81.37
2016-02-16T07:47:03.109Z,80.8
2016-02-16T07:48:03.533Z,81.52
2016-02-16T07:49:03.005Z,81.52
2016-02-16T07:50:02.961Z,81.62
2016-02-16T07:51:02.885Z,81.71
2016-02-16T07:52:02.826Z,81.99
2016-02-16T07:53:02.829Z,81.85
2016-02-16T07:54:02.784Z,81.37
2016-02-16T07:55:02.802Z,81.09
2016-02-16T07:56:02.571Z,81.27
2016-02-16T07:57:02.511Z,81.09
2016-02-16T07:58:02.529Z,81.05
2016-02-16T07:59:02.470Z,81.18
2016-02-16T08:00:02.362Z,80.9
2016-02-16T08:01:02.475Z,81.09
2016-02-16T08:02:02.243Z,80.95
2016-02-16T08:03:02.214Z,80.76
2016-02-16T08:04:02.124Z,81.56
2016-02-16T08:05:02.064Z,81.18
2016-02-16T08:06:02.051Z,81.27
2016-02-16T08:07:01.991Z,81.37
2016-02-16T08:08:01.900Z,80.95
2016-02-16T08:09:01.839Z,81.27
2016-02-16T08:10:01.781Z,81.62
2016-02-16T08:11:01.752Z,81.81
2016-02-16T08:12:01.708Z,81.33
2016-02-16T08:13:01.617Z,81.24
2016-02-16T08:14:01.526Z,81.27
2016-02-16T08:15:01.497Z,81.47
2016-02-16T08:16:01.437Z,81.14
2016-02-16T08:17:01.424Z,81.14
2016-02-16T08:18:01.411Z,81.52
2016-02-16T08:19:01.242Z,81.66
2016-02-16T08:20:01.198Z,81.47
2016-02-16T08:21:01.138Z,80.86
2016-02-16T08:22:01.109Z,80.67
2016-02-16T08:23:01.034Z,80.67
2016-02-16T08:24:00.974Z,81.47
2016-02-16T08:25:00.899Z,81.52
2016-02-16T08:26:00.839Z,81.71
2016-02-16T08:27:00.779Z,80.95
2016-02-16T08:28:00.720Z,80.38
2016-02-16T08:29:00.691Z,81.33
2016-02-16T08:30:00.631Z,81.62
2016-02-16T08:31:00.540Z,81.24
2016-02-16T08:32:00.558Z,81.62
2016-02-16T08:33:00.467Z,81.62
2016-02-16T08:34:00.595Z,81.14
2016-02-16T08:35:00.331Z,81.52
2016-02-16T08:36:00.459Z,80.76
2016-02-16T08:37:00.212Z,80.99
2016-02-16T08:38:00.168Z,80.38
2016-02-16T08:39:00.124Z,80.48
2016-02-16T08:40:00.048Z,80.95
2016-02-16T08:41:00.114Z,80.67
2016-02-16T08:41:59.913Z,80.29
2016-02-16T08:42:59.853Z,80.48
2016-02-16T08:43:59.809Z,80.48
2016-02-16T08:44:59.749Z,80.38
2016-02-16T08:45:59.675Z,79.66
2016-02-16T08:46:59.630Z,79.44
2016-02-16T08:47:59.695Z,79.57
2016-02-16T08:48:59.527Z,79.34
2016-02-16T08:49:59.497Z,78.67
2016-02-16T08:50:59.546Z,78.3
2016-02-16T08:51:59.346Z,78.77
2016-02-16T08:52:59.271Z,79.25
2016-02-16T08:53:59.274Z,78.49
2016-02-16T08:54:59.167Z,78.39
2016-02-16T08:55:59.248Z,77.67
2016-02-16T08:56:59.063Z,77.16
2016-02-16T08:57:58.971Z,77.16
2016-02-16T08:58:58.960Z,76.87
2016-02-16T08:59:58.915Z,77.06
2016-02-16T09:00:58.809Z,77.45
2016-02-16T09:01:58.732Z,77.58
2016-02-16T09:02:58.735Z,77.67
2016-02-16T09:03:58.675Z,77.2
2016-02-16T09:04:58.631Z,77.01
2016-02-16T09:05:58.540Z,77.11
2016-02-16T09:06:58.496Z,77.58
2016-02-16T09:07:58.608Z,77.2
2016-02-16T09:08:58.330Z,76.92
2016-02-16T09:09:58.426Z,76.15
2016-02-16T09:10:58.242Z,76.21
2016-02-16T09:11:58.166Z,76.63
2016-02-16T09:12:58.137Z,76.54
2016-02-16T09:13:58.094Z,76.21
2016-02-16T09:14:58.064Z,76.12
2016-02-16T09:15:57.942Z,75.96
2016-02-16T09:16:57.882Z,76.31
2016-02-16T09:17:57.854Z,76.03
2016-02-16T09:18:57.747Z,76.68
2016-02-16T09:19:57.702Z,76.59
2016-02-16T09:20:57.675Z,76.97
2016-02-16T09:21:57.630Z,76.73
2016-02-16T09:22:57.555Z,76.63
2016-02-16T09:23:57.542Z,76.63
2016-02-16T09:24:57.591Z,76.82
2016-02-16T09:25:57.516Z,76.54
2016-02-16T09:26:57.363Z,76.06
2016-02-16T09:27:57.287Z,75.87
2016-02-16T09:28:57.274Z,75.78
2016-02-16T09:29:57.152Z,76.06
2016-02-16T09:30:57.107Z,75.87
2016-02-16T09:31:57.126Z,75.96
2016-02-16T09:32:56.988Z,75.68
2016-02-16T09:33:57.054Z,75.68
2016-02-16T09:34:57.056Z,75.21
2016-02-16T09:35:56.809Z,74.92
2016-02-16T09:36:56.734Z,75.11
2016-02-16T09:37:56.705Z,75.02
2016-02-16T09:38:56.614Z,75.11
2016-02-16T09:39:56.554Z,74.54
2016-02-16T09:40:56.509Z,74.64
2016-02-16T09:41:56.434Z,74.64
2016-02-16T09:42:56.390Z,74.83
2016-02-16T09:43:56.378Z,74.83
2016-02-16T09:44:56.270Z,75.02
2016-02-16T09:45:56.258Z,75.21
2016-02-16T09:46:56.166Z,74.64
2016-02-16T09:47:56.372Z,74.64
2016-02-16T09:48:56.077Z,75.11
2016-02-16T09:49:56.019Z,75.21
2016-02-16T09:50:55.959Z,74.92
2016-02-16T09:51:55.852Z,74.64
2016-02-16T09:52:55.824Z,74.92
2016-02-16T09:53:55.810Z,74.92
2016-02-16T09:54:55.750Z,75.4
2016-02-16T09:55:55.627Z,75.11
2016-02-16T09:56:55.599Z,75.21
2016-02-16T09:57:55.727Z,74.73
2016-02-16T09:58:55.465Z,74.73
2016-02-16T09:59:55.483Z,75.21
2016-02-16T10:00:55.345Z,75.11
2016-02-16T10:01:55.285Z,75.4
2016-02-16T10:02:55.303Z,75.49
2016-02-16T10:03:55.165Z,75.02
2016-02-16T10:04:55.137Z,75.4
2016-02-16T10:05:55.109Z,75.59
2016-02-16T10:06:55.095Z,75.49
2016-02-16T10:07:54.957Z,75.68
2016-02-16T10:08:55.037Z,75.96
2016-02-16T10:09:54.869Z,75.68
2016-02-16T10:10:54.809Z,75.49
2016-02-16T10:11:53.981Z,75.31
2016-02-16T10:12:54.690Z,75.31
2016-02-16T10:13:54.612Z,75.21
2016-02-16T10:14:54.552Z,74.83
2016-02-16T10:15:54.508Z,74.92
2016-02-16T10:16:54.432Z,75.21
2016-02-16T10:17:54.372Z,75.49
2016-02-16T10:18:54.312Z,75.68
2016-02-16T10:19:54.237Z,75.49
2016-02-16T10:20:54.209Z,75.21
2016-02-16T10:21:54.149Z,75.11
2016-02-16T10:22:54.073Z,75.11
2016-02-16T10:23:54.060Z,74.87
2016-02-16T10:24:54.110Z,75.11
2016-02-16T10:25:53.909Z,75.11
2016-02-16T10:26:53.990Z,75.59
2016-02-16T10:27:53.805Z,75.78
2016-02-16T10:28:53.793Z,75.96
2016-02-16T10:29:53.717Z,75.21
2016-02-16T10:30:53.673Z,76.06
2016-02-16T10:31:53.551Z,76.34
2016-02-16T10:32:53.506Z,76.73
2016-02-16T10:33:53.477Z,76.34
2016-02-16T10:34:53.526Z,76.25
2016-02-16T10:35:53.343Z,75.31
2016-02-16T10:36:53.502Z,75.59
2016-02-16T10:37:53.254Z,75.31
2016-02-16T10:38:53.194Z,75.68
2016-02-16T10:39:53.134Z,75.68
2016-02-16T10:40:53.137Z,75.59
2016-02-16T10:41:53.030Z,75.49
2016-02-16T10:42:53.064Z,75.31
2016-02-16T10:43:52.864Z,75.68
2016-02-16T10:44:52.898Z,75.49
2016-02-16T10:45:52.776Z,75.78
2016-02-16T10:46:52.747Z,75.53
2016-02-16T10:47:52.655Z,75.81
2016-02-16T10:48:52.612Z,75.31
2016-02-16T10:49:52.600Z,75.4
2016-02-16T10:50:52.523Z,75.72
2016-02-16T10:51:52.433Z,75.62
2016-02-16T10:52:52.372Z,75.96
2016-02-16T10:53:52.344Z,76.54
2016-02-16T10:54:52.283Z,76.06
2016-02-16T10:55:52.240Z,76.34
2016-02-16T10:56:52.134Z,76.54
2016-02-16T10:57:52.199Z,77.01
2016-02-16T10:58:52.030Z,77.2
2016-02-16T10:59:51.985Z,76.73
2016-02-16T11:00:51.925Z,76.82
2016-02-16T11:01:51.865Z,77.11
2016-02-16T11:02:51.791Z,77.11
2016-02-16T11:03:51.730Z,77.01
2016-02-16T11:04:51.702Z,76.92
2016-02-16T11:05:51.626Z,77.29
2016-02-16T11:06:51.613Z,77.48
2016-02-16T11:07:51.553Z,77.11
2016-02-16T11:08:51.447Z,77.01
2016-02-16T11:09:51.371Z,77.48
2016-02-16T11:10:50.640Z,77.29
2016-02-16T11:11:51.299Z,77.86
2016-02-16T11:12:51.254Z,77.11
2016-02-16T11:13:51.179Z,77.29
2016-02-16T11:14:51.119Z,77.48
2016-02-16T11:15:51.075Z,77.67
2016-02-16T11:16:50.967Z,77.67
2016-02-16T11:17:51.018Z,77.77
2016-02-16T11:18:50.896Z,77.67
2016-02-16T11:19:50.914Z,77.01
2016-02-16T11:20:50.776Z,77.48
2016-02-16T11:21:50.763Z,77.39
2016-02-16T11:22:50.672Z,77.67
2016-02-16T11:23:50.675Z,77.67
2016-02-16T11:24:50.584Z,77.48
2016-02-16T11:25:50.461Z,77.48
2016-02-16T11:26:50.417Z,77.58
2016-02-16T11:27:50.378Z,77.48
2016-02-16T11:28:50.318Z,77.48
2016-02-16T11:29:50.227Z,77.58
2016-02-16T11:30:50.260Z,77.29
2016-02-16T11:31:50.123Z,77.29
2016-02-16T11:32:50.079Z,77.67
2016-02-16T11:33:49.987Z,77.67
2016-02-16T11:34:49.974Z,77.77
2016-02-16T11:35:49.915Z,78.05
2016-02-16T11:36:49.870Z,77.96
2016-02-16T11:37:49.779Z,77.48
2016-02-16T11:38:49.720Z,77.96
2016-02-16T11:39:49.660Z,78.24
2016-02-16T11:40:49.695Z,78.43
2016-02-16T11:41:49.556Z,78.53
2016-02-16T11:42:49.528Z,78.72
2016-02-16T11:43:49.498Z,78.34
2016-02-16T11:44:49.439Z,78.81
2016-02-16T11:45:49.333Z,78.72
2016-02-16T11:46:49.242Z,79
2016-02-16T11:47:49.228Z,78.91
2016-02-16T11:48:49.137Z,78.72
2016-02-16T11:49:49.108Z,78.43
2016-02-16T11:50:49.017Z,78.05
2016-02-16T11:51:49.020Z,78.53
2016-02-16T11:52:48.930Z,79.19
2016-02-16T11:53:48.869Z,79.19
2016-02-16T11:54:48.810Z,79.19
2016-02-16T11:55:48.766Z,79.38
2016-02-16T11:56:48.768Z,79
2016-02-16T11:57:48.646Z,79.1
2016-02-16T11:58:48.586Z,79
2016-02-16T11:59:48.542Z,79.28
2016-02-16T12:00:48.513Z,79.57
2016-02-16T12:01:48.422Z,79.85
2016-02-16T12:02:48.346Z,80.14
2016-02-16T12:03:48.288Z,80.04
2016-02-16T12:04:48.274Z,79.95
2016-02-16T12:05:48.173Z,80.14
2016-02-16T12:06:48.113Z,80.04
2016-02-16T12:07:48.085Z,80.14
2016-02-16T12:08:48.071Z,79.85
2016-02-16T12:09:47.949Z,79.85
2016-02-16T12:10:47.890Z,80.04
2016-02-16T12:11:47.862Z,80.04
2016-02-16T12:12:47.973Z,79.95
2016-02-16T12:13:47.710Z,80.24
2016-02-16T12:14:47.776Z,80.04
2016-02-16T12:15:47.591Z,80.43
2016-02-16T12:16:47.546Z,80.04
2016-02-16T12:17:47.503Z,80.04
2016-02-16T12:18:47.396Z,80.24
2016-02-16T12:19:47.539Z,80.62
2016-02-16T12:20:47.292Z,80.52
2016-02-16T12:21:47.216Z,81.18
2016-02-16T12:22:47.203Z,81.09
2016-02-16T12:23:47.176Z,81.66
2016-02-16T12:24:47.256Z,81.56
2016-02-16T12:25:47.040Z,81.75
2016-02-16T12:26:46.933Z,81.27
2016-02-16T12:27:46.888Z,81.27
2016-02-16T12:28:47.001Z,81.66
2016-02-16T12:29:46.925Z,81.85
2016-02-16T12:30:46.725Z,81.75
2016-02-16T12:31:46.681Z,81.85
2016-02-16T12:32:46.605Z,82.23
2016-02-16T12:33:46.546Z,82.7
2016-02-16T12:34:46.517Z,83.27
2016-02-16T12:35:46.441Z,82.98
2016-02-16T12:36:46.367Z,82.79
2016-02-16T12:37:46.338Z,82.89
2016-02-16T12:38:46.387Z,83.27
2016-02-16T12:39:46.233Z,83.17
2016-02-16T12:40:46.345Z,83.08
2016-02-16T12:41:46.067Z,83.27
2016-02-16T12:42:46.039Z,83.17
2016-02-16T12:43:45.979Z,83.36
2016-02-16T12:44:45.965Z,83.46
2016-02-16T12:45:45.891Z,83.55
2016-02-16T12:46:45.799Z,83.55
2016-02-16T12:47:45.723Z,83.46
2016-02-16T12:48:45.695Z,84.12
2016-02-16T12:49:45.635Z,84.12
2016-02-16T12:50:45.575Z,84.78
2016-02-16T12:51:45.657Z,85.17
2016-02-16T12:52:45.597Z,85.64